Time;durP1;ratioP1;P1;durP2;ratioP2;P2;SDS_P1;SDS_P2;PMS_P1;PMS_P2;Temp;Humidity;BMP_temperature;BMP_pressure;BME280_temperature;BME280_humidity;BME280_pressure;Samples;Min_cycle;Max_cycle;Signal;HPM_P1;HPM_P2
2022/06/06 00:01:49;;;;;;;10.40;8.78;;;;;;;16.01;59.62;100275.78;2227230;79;33001;-72
2022/06/06 00:04:50;;;;;;;9.48;8.58;;;;;;;15.97;59.48;100286.44;2227981;79;29329;-72
2022/06/06 00:07:51;;;;;;;12.65;9.60;;;;;;;15.93;60.11;100278.55;2227441;79;27646;-73
2022/06/06 00:10:55;;;;;;;10.05;8.90;;;;;;;15.89;59.63;100283.78;2227343;79;28851;-73
2022/06/06 00:13:57;;;;;;;8.98;8.08;;;;;;;15.84;59.59;100275.14;2227003;79;31879;-74
2022/06/06 00:16:58;;;;;;;12.50;9.83;;;;;;;15.80;59.63;100274.98;2227145;79;33046;-75
2022/06/06 00:19:59;;;;;;;10.48;9.40;;;;;;;15.75;59.71;100272.62;2227134;79;30126;-80
2022/06/06 00:23:01;;;;;;;11.65;9.98;;;;;;;15.65;59.83;100257.55;2226970;78;27705;-77
2022/06/06 00:26:07;;;;;;;12.45;8.50;;;;;;;15.65;59.83;100257.55;2226891;79;28830;-77
2022/06/06 00:29:12;;;;;;;11.65;8.88;;;;;;;15.61;60.09;100253.84;2185668;81;31298;-73
2022/06/06 00:35:33;;;;;;;10.45;9.00;;;;;;;15.50;60.42;100246.00;2227018;79;29986;-73
2022/06/06 00:38:34;;;;;;;15.25;9.55;;;;;;;15.44;60.51;100244.23;2185587;81;27737;-74
2022/06/06 00:41:45;;;;;;;10.35;8.95;;;;;;;15.40;60.43;100235.49;2227080;79;28638;-74
2022/06/06 00:44:47;;;;;;;10.10;8.90;;;;;;;15.37;60.97;100230.31;2185473;81;31027;-74
2022/06/06 00:48:10;;;;;;;9.70;8.38;;;;;;;15.35;60.92;100221.45;2227134;79;32961;-74
2022/06/06 00:51:14;;;;;;;9.18;8.13;;;;;;;15.31;60.99;100204.62;2185043;81;29611;-74
2022/06/06 00:54:16;;;;;;;10.10;9.10;;;;;;;15.30;61.23;100191.25;2227298;79;27774;-72
2022/06/06 00:57:22;;;;;;;11.03;8.53;;;;;;;15.29;60.97;100183.63;2227214;79;28630;-74
2022/06/06 01:00:24;;;;;;;9.68;8.68;;;;;;;15.30;61.22;100184.50;2227021;79;31824;-73
2022/06/06 01:03:27;;;;;;;12.00;8.13;;;;;;;15.29;60.93;100182.27;2227080;79;32987;-71
2022/06/06 01:06:33;;;;;;;10.85;9.05;;;;;;;15.30;61.14;100171.85;2227043;79;29329;-71
2022/06/06 01:09:36;;;;;;;8.75;7.80;;;;;;;15.31;61.04;100160.55;2227117;79;27734;-72
2022/06/06 01:12:38;;;;;;;9.15;8.25;;;;;;;15.30;60.95;100163.76;2226807;79;29498;-76
2022/06/06 01:15:51;;;;;;;11.30;8.28;;;;;;;15.30;61.41;100169.66;2226687;79;32022;-77
2022/06/06 01:19:24;;;;;;;8.30;7.50;;;;;;;15.30;60.83;100178.60;2227644;79;33579;-73
2022/06/06 01:22:53;;;;;;;11.83;8.25;;;;;;;15.21;60.83;100160.38;2228337;78;29346;-76
2022/06/06 01:26:03;;;;;;;9.28;7.70;;;;;;;15.26;60.80;100177.59;2188586;81;28254;-76
2022/06/06 01:29:21;;;;;;;9.13;8.23;;;;;;;15.22;61.19;100177.42;2236849;79;28665;-73
2022/06/06 01:32:23;;;;;;;15.05;8.63;;;;;;;15.15;61.01;100188.64;2171978;81;31063;-74
2022/06/06 01:35:30;;;;;;;11.12;8.05;;;;;;;15.10;61.03;100189.47;2151960;82;33181;-73
2022/06/06 01:38:31;;;;;;;13.50;8.75;;;;;;;15.06;61.33;100196.55;2193037;81;29398;-76
2022/06/06 01:42:09;;;;;;;16.90;8.68;;;;;;;15.01;61.18;100200.89;2237141;78;27650;-72
2022/06/06 01:45:21;;;;;;;9.90;8.90;;;;;;;14.98;61.12;100197.05;2150493;82;28643;-73
2022/06/06 01:48:27;;;;;;;9.95;8.85;;;;;;;14.93;61.15;100182.55;2192579;81;31028;-73
2022/06/06 01:51:31;;;;;;;9.03;8.20;;;;;;;14.92;61.18;100179.47;2237112;79;32940;-74
2022/06/06 01:54:32;;;;;;;10.20;9.08;;;;;;;14.90;61.22;100178.71;2237152;79;29430;-74
2022/06/06 01:57:33;;;;;;;11.90;9.90;;;;;;;14.88;61.22;100169.89;2237173;79;27584;-72
2022/06/06 02:00:37;;;;;;;11.05;7.95;;;;;;;14.85;61.28;100180.39;2233466;79;29324;-72
2022/06/06 02:03:38;;;;;;;10.65;8.63;;;;;;;14.82;61.43;100175.70;2189395;81;31003;-69
2022/06/06 02:06:40;;;;;;;11.10;8.60;;;;;;;14.80;61.48;100179.86;2237152;79;33717;-75
2022/06/06 02:09:42;;;;;;;9.88;8.40;;;;;;;14.81;61.51;100171.27;2189364;81;29333;-69
2022/06/06 02:12:43;;;;;;;11.40;8.70;;;;;;;14.82;61.66;100164.91;2237289;79;27605;-69
2022/06/06 02:15:45;;;;;;;10.18;8.23;;;;;;;14.85;61.53;100168.25;2189507;81;29427;-69
2022/06/06 02:18:46;;;;;;;10.40;9.35;;;;;;;14.91;61.51;100165.60;2237052;79;30992;-72
2022/06/06 02:21:47;;;;;;;10.60;8.08;;;;;;;14.98;61.67;100164.21;2189293;81;33717;-76
2022/06/06 02:24:49;;;;;;;11.85;8.18;;;;;;;15.06;61.59;100162.32;2236720;78;29293;-69
2022/06/06 02:27:51;;;;;;;11.53;8.43;;;;;;;15.12;61.54;100161.90;2237133;79;27687;-67
2022/06/06 02:30:52;;;;;;;10.18;8.08;;;;;;;15.16;61.43;100162.03;2236698;79;28684;-75
2022/06/06 02:33:54;;;;;;;11.65;9.23;;;;;;;15.19;61.34;100156.42;2205845;79;31095;-74
2022/06/06 02:36:55;;;;;;;10.43;9.10;;;;;;;15.21;61.20;100152.28;2237088;79;33740;-67
2022/06/06 02:39:57;;;;;;;10.43;8.50;;;;;;;15.23;61.20;100150.81;2237217;79;29490;-67
2022/06/06 02:42:59;;;;;;;10.13;7.80;;;;;;;15.24;60.99;100150.69;2237257;79;27609;-69
2022/06/06 02:46:03;;;;;;;13.83;9.18;;;;;;;15.26;61.08;100150.59;2237206;79;28570;-68
2022/06/06 02:49:03;;;;;;;10.53;8.65;;;;;;;15.28;61.08;100147.31;2237629;79;31020;-70
2022/06/06 02:52:05;;;;;;;9.80;8.48;;;;;;;15.29;60.98;100132.84;2237170;79;33743;-70
2022/06/06 02:55:09;;;;;;;10.25;8.85;;;;;;;15.30;61.06;100139.46;2237087;79;29331;-74
2022/06/06 02:58:10;;;;;;;14.10;8.78;;;;;;;15.33;60.89;100142.42;2237052;79;27714;-71
2022/06/06 03:01:11;;;;;;;14.00;9.48;;;;;;;15.33;60.78;100151.86;2189372;81;28664;-67
2022/06/06 03:04:13;;;;;;;11.25;8.53;;;;;;;15.34;60.79;100140.09;2237024;79;31829;-67
2022/06/06 03:07:50;;;;;;;15.20;9.90;;;;;;;15.31;60.78;100149.29;2189306;81;33017;-76
2022/06/06 03:11:27;;;;;;;10.48;9.03;;;;;;;15.31;60.73;100147.94;2219902;79;29393;-73
2022/06/06 03:14:55;;;;;;;11.60;9.23;;;;;;;15.31;60.85;100149.29;2220162;80;27674;-73
2022/06/06 03:21:42;;;;;;;12.37;9.78;;;;;;;15.35;60.80;100152.63;2187624;81;31036;-72
2022/06/06 03:25:14;;;;;;;16.05;9.35;;;;;;;15.38;60.74;100162.36;2154436;82;32968;-73
2022/06/06 03:28:27;;;;;;;11.35;9.88;;;;;;;15.42;60.76;100167.89;2186836;79;30189;-71
2022/06/06 03:32:00;;;;;;;16.95;9.20;;;;;;;15.43;60.92;100156.99;2182454;79;27750;-76
2022/06/06 03:35:26;;;;;;;10.50;9.00;;;;;;;15.45;60.83;100163.15;2179930;81;28767;-73
2022/06/06 03:39:01;;;;;;;16.32;10.10;;;;;;;15.46;60.78;100155.90;2194062;81;31020;-68
2022/06/06 03:42:16;;;;;;;15.28;10.95;;;;;;;15.49;60.76;100166.48;2194212;81;32954;-73
2022/06/06 03:45:38;;;;;;;17.77;11.30;;;;;;;15.53;60.78;100163.94;2194097;81;29339;-70
2022/06/06 03:49:03;;;;;;;12.65;9.30;;;;;;;15.56;60.71;100155.59;2155830;82;27588;-70
2022/06/06 03:52:22;;;;;;;11.23;9.70;;;;;;;15.64;60.75;100153.68;2157158;82;28655;-71
2022/06/06 03:55:35;;;;;;;12.53;9.65;;;;;;;15.72;60.80;100156.70;2195596;81;30443;-74
2022/06/06 03:58:38;;;;;;;13.53;9.95;;;;;;;15.89;60.90;100156.81;2195701;81;33736;-70
2022/06/06 04:01:42;;;;;;;15.00;9.90;;;;;;;16.11;60.62;100148.45;2195559;81;29353;-74
2022/06/06 04:04:44;;;;;;;12.88;9.58;;;;;;;16.36;60.57;100147.95;2157285;82;27625;-75
2022/06/06 04:07:46;;;;;;;10.43;9.13;;;;;;;16.62;60.29;100151.83;2195717;81;29322;-71
2022/06/06 04:11:09;;;;;;;10.28;9.20;;;;;;;17.18;59.57;100141.60;2203112;79;31117;-71
2022/06/06 04:14:38;;;;;;;11.83;9.03;;;;;;;17.18;59.57;100141.60;2195041;81;32978;-67
2022/06/06 04:17:53;;;;;;;10.45;9.30;;;;;;;17.48;59.10;100141.97;2234881;79;29335;-67
2022/06/06 04:21:35;;;;;;;17.85;10.13;;;;;;;17.79;58.97;100150.28;2235001;79;27656;-68
2022/06/06 04:25:03;;;;;;;14.23;9.73;;;;;;;18.10;58.68;100142.33;2224254;79;28640;-68
2022/06/06 04:28:34;;;;;;;11.22;9.83;;;;;;;18.46;58.18;100140.20;2216724;80;31246;-69
2022/06/06 04:31:53;;;;;;;11.78;9.35;;;;;;;18.82;57.78;100142.94;2216942;80;32936;-68
2022/06/06 04:35:41;;;;;;;12.93;9.53;;;;;;;19.22;57.47;100144.03;2217224;80;30082;-70
2022/06/06 04:39:00;;;;;;;12.00;9.53;;;;;;;19.67;56.76;100148.20;2216930;80;27684;-69
2022/06/06 04:42:31;;;;;;;14.20;8.08;;;;;;;20.15;55.40;100147.95;2216743;80;29499;-70
2022/06/06 04:45:56;;;;;;;9.48;8.40;;;;;;;20.92;56.21;100143.97;2216702;80;31013;-69
2022/06/06 04:48:58;;;;;;;16.40;8.70;;;;;;;22.06;54.03;100139.26;2217634;80;32963;-69
2022/06/06 04:51:59;;;;;;;11.08;8.63;;;;;;;23.04;53.59;100142.45;2170879;82;29346;-69
2022/06/06 04:55:03;;;;;;;15.58;8.60;;;;;;;23.69;52.41;100131.15;2217315;80;27715;-70
2022/06/06 04:58:06;;;;;;;13.30;9.40;;;;;;;24.37;51.92;100131.98;2190660;80;28660;-69
2022/06/06 05:01:08;;;;;;;14.07;8.40;;;;;;;24.85;49.80;100133.50;2170924;82;31839;-69
2022/06/06 05:04:09;;;;;;;15.63;8.95;;;;;;;25.08;47.88;100118.55;2217083;80;33737;-69
2022/06/06 05:07:51;;;;;;;12.35;9.28;;;;;;;25.49;47.23;100132.66;2170838;82;30096;-70
2022/06/06 05:11:15;;;;;;;13.62;8.60;;;;;;;25.91;47.03;100131.92;2217218;80;27803;-75
2022/06/06 05:14:54;;;;;;;9.83;7.70;;;;;;;26.62;45.45;100140.54;2216753;80;28647;-76
2022/06/06 05:18:10;;;;;;;9.65;7.53;;;;;;;27.24;45.39;100145.43;2217135;80;31005;-75
2022/06/06 05:21:28;;;;;;;9.63;8.00;;;;;;;27.73;44.67;100145.34;2217240;79;33338;-77
2022/06/06 05:24:50;;;;;;;12.80;8.95;;;;;;;28.32;44.05;100147.62;2224653;79;30626;-71
2022/06/06 05:28:06;;;;;;;10.58;8.25;;;;;;;29.00;42.72;100148.55;2237180;79;27695;-70
2022/06/06 05:31:33;;;;;;;9.30;7.45;;;;;;;29.74;41.56;100143.96;2236629;79;28347;-67
2022/06/06 05:34:46;;;;;;;10.18;7.92;;;;;;;30.31;40.64;100137.14;2237239;79;31044;-70
2022/06/06 05:38:25;;;;;;;9.00;7.40;;;;;;;30.95;39.66;100133.95;2236950;79;33015;-72
2022/06/06 05:41:37;;;;;;;8.55;7.17;;;;;;;31.43;36.83;100131.98;2235931;79;29352;-71
2022/06/06 05:44:59;;;;;;;8.18;7.25;;;;;;;31.79;37.21;100127.27;2236953;79;27726;-64
2022/06/06 05:48:12;;;;;;;8.25;7.37;;;;;;;31.93;36.57;100133.59;2237136;79;28404;-67
2022/06/06 05:51:31;;;;;;;9.85;8.65;;;;;;;32.23;36.13;100127.43;2237371;79;31013;-65
2022/06/06 05:54:56;;;;;;;9.90;8.05;;;;;;;32.10;33.99;100132.52;2236508;79;32962;-64
2022/06/06 05:58:42;;;;;;;10.23;7.67;;;;;;;31.98;34.66;100135.14;2237409;79;29749;-66
2022/06/06 06:02:25;;;;;;;12.60;7.58;;;;;;;32.20;33.34;100136.19;2237390;79;27599;-67
2022/06/06 06:05:49;;;;;;;8.18;7.45;;;;;;;32.47;32.23;100142.11;2237363;79;29062;-67
2022/06/06 06:09:40;;;;;;;11.53;8.38;;;;;;;32.54;33.39;100138.73;2237199;79;30578;-67
2022/06/06 06:13:06;;;;;;;16.35;7.72;;;;;;;32.78;32.36;100135.64;2236340;79;34113;-66
2022/06/06 06:16:11;;;;;;;9.88;7.35;;;;;;;33.28;32.25;100140.83;2236121;79;29542;-66
2022/06/06 06:19:20;;;;;;;8.90;7.37;;;;;;;33.98;32.34;100140.14;2237453;79;27607;-67
2022/06/06 06:22:22;;;;;;;9.35;7.55;;;;;;;34.25;31.81;100139.20;2237236;79;28639;-66
2022/06/06 06:25:26;;;;;;;11.57;7.65;;;;;;;33.90;31.05;100142.15;2236686;78;31790;-65
2022/06/06 06:28:28;;;;;;;12.03;6.72;;;;;;;33.63;30.28;100149.95;2237069;79;33881;-67
2022/06/06 06:31:58;;;;;;;9.60;7.20;;;;;;;33.96;31.30;100147.30;2237353;79;29742;-65
2022/06/06 06:35:20;;;;;;;8.48;7.20;;;;;;;34.07;31.01;100149.83;2189411;81;27650;-65
2022/06/06 06:38:53;;;;;;;7.78;7.00;;;;;;;34.45;31.17;100145.00;2237711;79;29002;-66
2022/06/06 06:42:17;;;;;;;9.10;7.20;;;;;;;34.82;30.40;100148.45;2236847;79;30810;-64
2022/06/06 06:45:33;;;;;;;7.92;6.97;;;;;;;35.44;30.10;100154.63;2231589;78;33403;-65
2022/06/06 06:48:45;;;;;;;8.00;7.20;;;;;;;35.80;29.70;100151.75;2232255;78;30541;-67
2022/06/06 06:52:16;;;;;;;8.38;6.85;;;;;;;36.30;29.45;100159.44;2236025;79;27675;-65
2022/06/06 06:55:36;;;;;;;11.78;6.90;;;;;;;36.26;29.29;100160.16;2237169;79;29182;-65
2022/06/06 06:59:04;;;;;;;7.87;6.97;;;;;;;36.11;29.34;100147.62;2237095;79;31016;-65
2022/06/06 07:09:25;;;;;;;8.35;6.70;;;;;;;35.37;29.45;100156.12;2114163;83;27684;-66
2022/06/06 07:12:50;;;;;;;9.75;7.30;;;;;;;35.17;29.51;100150.09;2113771;84;28646;-67
2022/06/06 07:16:06;;;;;;;10.25;6.75;;;;;;;35.14;29.70;100150.90;2163015;82;31201;-66
2022/06/06 07:19:22;;;;;;;10.10;6.95;;;;;;;35.16;29.66;100151.20;2165975;82;34235;-67
2022/06/06 07:22:24;;;;;;;7.47;6.78;;;;;;;34.94;29.53;100149.86;2166558;82;29537;-65
2022/06/06 07:25:37;;;;;;;6.67;6.08;;;;;;;34.54;29.40;100156.10;2124661;82;27635;-66
2022/06/06 07:28:38;;;;;;;8.40;6.20;;;;;;;34.27;29.71;100159.81;2114688;84;29302;-66
2022/06/06 07:32:12;;;;;;;7.70;6.30;;;;;;;34.03;29.83;100158.32;2148383;82;30840;-63
2022/06/06 07:35:41;;;;;;;;;;;;;;;33.74;29.89;100160.83;2142089;82;33766;-65
2022/06/06 07:39:17;;;;;;;6.70;6.03;;;;;;;33.23;29.80;100160.95;2086785;84;29478;-65
2022/06/06 07:42:44;;;;;;;7.12;5.80;;;;;;;32.87;30.25;100167.62;2116902;83;27703;-66
2022/06/06 07:45:49;;;;;;;7.03;6.00;;;;;;;32.49;30.90;100171.30;2116373;84;29900;-65
2022/06/06 07:49:27;;;;;;;6.65;5.83;;;;;;;32.27;31.04;100174.43;2116328;84;31809;-64
2022/06/06 07:52:45;;;;;;;11.65;6.12;;;;;;;32.07;31.27;100174.53;2116447;83;32830;-65
2022/06/06 07:56:07;;;;;;;8.68;6.62;;;;;;;31.81;31.61;100169.45;2116456;84;29351;-65
2022/06/06 07:59:31;;;;;;;9.58;5.62;;;;;;;31.67;32.13;100172.77;2140818;82;27768;-65
2022/06/06 08:02:58;;;;;;;;;;;;;;;31.41;32.33;100169.55;2121405;82;29241;-67
2022/06/06 08:06:22;;;;;;;6.30;5.42;;;;;;;31.15;32.97;100171.33;2089287;83;30794;-65
2022/06/06 08:09:43;;;;;;;10.63;5.90;;;;;;;30.85;33.26;100174.53;2069178;86;34229;-68
2022/06/06 08:13:08;;;;;;;6.50;5.90;;;;;;;30.58;33.78;100177.27;2104074;84;29727;-65
2022/06/06 08:16:37;;;;;;;7.22;5.62;;;;;;;30.26;34.05;100183.89;2192892;81;27657;-66
2022/06/06 08:20:09;;;;;;;6.25;5.70;;;;;;;29.99;34.58;100176.92;2209746;80;29493;-63
2022/06/06 08:23:13;;;;;;;6.90;6.22;;;;;;;29.56;35.04;100179.37;2171620;82;31165;-66
2022/06/06 08:26:16;;;;;;;;;;;;;;;29.25;35.82;100183.92;2173833;81;33320;-65
2022/06/06 08:29:18;;;;;;;9.23;6.55;;;;;;;28.95;36.39;100189.66;2171933;82;30062;-66
2022/06/06 08:32:21;;;;;;;11.30;6.75;;;;;;;28.70;36.91;100201.10;2201130;80;27730;-65
2022/06/06 08:35:27;;;;;;;9.60;7.12;;;;;;;28.45;37.99;100197.89;2210012;80;29009;-66
2022/06/06 08:38:43;;;;;;;7.25;6.55;;;;;;;28.17;38.28;100204.14;2209939;80;32199;-64
2022/06/06 08:42:09;;;;;;;7.83;7.00;;;;;;;28.01;38.92;100214.86;2151025;82;33762;-65
2022/06/06 08:45:30;;;;;;;9.95;6.67;;;;;;;27.83;39.40;100222.12;2150794;82;29773;-67
2022/06/06 08:49:10;;;;;;;7.58;6.78;;;;;;;27.70;39.97;100222.29;2156064;82;27726;-69
2022/06/06 08:52:21;;;;;;;7.10;6.12;;;;;;;27.58;40.24;100215.03;2114189;82;29953;-70
2022/06/06 08:55:40;;;;;;;9.33;6.85;;;;;;;27.53;40.60;100218.02;2113382;84;32062;-69
2022/06/06 08:59:02;;;;;;;14.47;6.47;;;;;;;27.57;40.85;100215.23;2114375;84;33555;-66
2022/06/06 09:02:30;;;;;;;7.97;5.65;;;;;;;27.73;41.23;100221.05;2113997;84;29374;-67
2022/06/06 09:06:24;;;;;;;7.50;6.12;;;;;;;27.95;41.20;100222.50;2156093;82;28129;-69
2022/06/06 09:09:43;;;;;;;8.15;6.75;;;;;;;28.00;40.87;100222.25;2150992;82;28178;-66
2022/06/06 09:13:06;;;;;;;9.60;7.00;;;;;;;28.05;40.93;100226.66;2155799;82;31899;-66
2022/06/06 09:16:43;;;;;;;10.48;9.48;;;;;;;27.99;40.83;100230.71;2150591;82;33428;-69
2022/06/06 09:20:02;;;;;;;6.60;6.00;;;;;;;27.98;41.02;100233.97;2208098;80;29366;-66
2022/06/06 09:23:47;;;;;;;6.25;5.78;;;;;;;27.94;41.04;100242.81;2209700;80;28157;-67
2022/06/06 09:27:16;;;;;;;6.00;5.50;;;;;;;27.92;41.09;100244.91;2228246;79;29079;-68
2022/06/06 09:30:50;;;;;;;5.20;4.70;;;;;;;27.92;41.32;100244.40;2234531;79;32315;-68
2022/06/06 09:34:12;;;;;;;5.72;5.28;;;;;;;27.92;41.39;100244.40;2194860;81;33338;-69
2022/06/06 09:37:45;;;;;;;7.75;5.50;;;;;;;27.89;41.35;100251.13;2187773;81;29984;-72
2022/06/06 09:41:07;;;;;;;5.92;5.15;;;;;;;27.78;41.59;100243.36;2187459;81;27633;-71
2022/06/06 09:44:33;;;;;;;5.90;5.42;;;;;;;27.69;41.82;100248.11;2213816;79;30057;-69
2022/06/06 09:48:12;;;;;;;6.67;4.55;;;;;;;27.63;42.02;100249.39;2234659;79;32245;-71
2022/06/06 09:51:51;;;;;;;6.72;4.78;;;;;;;27.53;42.31;100249.67;2234090;79;33679;-73
2022/06/06 09:59:04;;;;;;;5.40;4.90;;;;;;;27.29;42.80;100245.59;2235072;79;27605;-71
2022/06/06 10:02:26;;;;;;;24.10;9.00;;;;;;;27.25;43.10;100235.99;2235379;79;28640;-71
2022/06/06 10:06:00;;;;;;;10.53;5.45;;;;;;;27.25;43.29;100237.91;2195373;81;32061;-72
2022/06/06 10:09:24;;;;;;;12.07;7.67;;;;;;;27.30;43.62;100235.45;2196277;81;33650;-69
2022/06/06 10:12:55;;;;;;;5.90;5.28;;;;;;;27.41;43.89;100236.36;2119108;82;30535;-71
2022/06/06 10:16:15;;;;;;;5.20;4.72;;;;;;;27.55;43.88;100231.92;2155477;82;27764;-70
2022/06/06 10:19:32;;;;;;;6.00;5.42;;;;;;;27.63;43.82;100239.25;2155567;82;29514;-68
2022/06/06 10:23:03;;;;;;;5.75;5.30;;;;;;;27.57;43.98;100233.96;2155217;82;31619;-69
2022/06/06 10:26:22;;;;;;;6.47;5.87;;;;;;;27.65;44.19;100239.05;2155382;82;33030;-70
2022/06/06 10:33:41;;;;;;;6.80;5.20;;;;;;;27.93;44.25;100234.22;2155449;82;27714;-69
2022/06/06 10:37:01;;;;;;;6.75;5.67;;;;;;;28.14;44.16;100226.56;2155204;82;29406;-69
2022/06/06 10:40:23;;;;;;;6.72;5.58;;;;;;;28.34;44.33;100231.78;2155450;82;30842;-69
2022/06/06 10:43:48;;;;;;;6.28;5.12;;;;;;;28.47;44.05;100224.20;2155389;82;33796;-69
2022/06/06 10:47:09;;;;;;;5.35;4.95;;;;;;;28.64;43.74;100229.45;2155002;82;29710;-69
2022/06/06 10:50:19;;;;;;;7.28;5.35;;;;;;;28.71;43.48;100233.64;2182386;81;27702;-68
2022/06/06 10:53:35;;;;;;;6.15;5.40;;;;;;;28.84;43.54;100237.93;2206249;79;28073;-69
2022/06/06 10:56:48;;;;;;;6.08;5.60;;;;;;;29.04;43.27;100242.23;2234511;79;31814;-69
2022/06/06 11:00:26;;;;;;;6.10;4.67;;;;;;;29.31;43.27;100241.08;2234850;79;34210;-69
2022/06/06 11:04:08;;;;;;;5.17;4.75;;;;;;;29.54;42.58;100239.96;2194799;81;30513;-68
2022/06/06 11:07:58;;;;;;;6.60;4.47;;;;;;;29.69;42.41;100242.61;2195555;81;27725;-68
2022/06/06 11:11:25;;;;;;;4.67;3.95;;;;;;;29.64;42.30;100234.94;2188077;81;29069;-68
2022/06/06 11:14:44;;;;;;;4.00;3.47;;;;;;;29.98;42.63;100225.45;2216935;79;31091;-68
2022/06/06 11:18:07;;;;;;;2.83;2.33;;;;;;;30.33;42.43;100227.29;2194832;81;33017;-67
2022/06/06 11:21:47;;;;;;;2.63;2.43;;;;;;;30.61;41.56;100236.30;2155516;82;29448;-69
2022/06/06 11:25:15;;;;;;;5.12;2.65;;;;;;;30.75;41.11;100237.19;2195152;81;27607;-69
2022/06/06 11:28:48;;;;;;;3.25;3.05;;;;;;;30.73;40.63;100231.01;2195124;81;29898;-71
2022/06/06 11:32:07;;;;;;;2.80;2.40;;;;;;;30.66;40.58;100232.90;2188078;81;31043;-71
2022/06/06 11:35:48;;;;;;;2.60;2.40;;;;;;;30.56;40.61;100238.84;2224916;79;33334;-71
2022/06/06 11:39:12;;;;;;;2.70;2.50;;;;;;;30.60;40.33;100246.20;2235200;79;29196;-70
2022/06/06 11:42:50;;;;;;;2.62;2.47;;;;;;;30.53;40.34;100246.12;2194411;81;27685;-70
2022/06/06 11:46:23;;;;;;;3.37;1.72;;;;;;;30.50;40.22;100247.95;2235081;79;28635;-72
2022/06/06 11:50:03;;;;;;;2.47;2.27;;;;;;;30.30;40.24;100245.98;2234582;79;32246;-71
2022/06/06 11:53:28;;;;;;;2.02;1.92;;;;;;;30.07;40.29;100246.84;2234892;79;33102;-70
2022/06/06 11:56:44;;;;;;;2.15;1.95;;;;;;;29.85;40.57;100245.03;2194254;81;29677;-70
2022/06/06 12:00:06;;;;;;;2.40;2.20;;;;;;;29.67;40.66;100244.20;2234168;79;27877;-68
2022/06/06 12:03:34;;;;;;;3.42;2.17;;;;;;;29.47;40.82;100250.97;2234374;79;29958;-70
2022/06/06 12:07:21;;;;;;;1.85;1.70;;;;;;;29.26;41.10;100255.99;2234956;79;31650;-69
2022/06/06 12:10:32;;;;;;;4.47;1.98;;;;;;;29.11;41.24;100255.56;2234588;79;34184;-70
2022/06/06 12:14:08;;;;;;;2.08;1.80;;;;;;;28.80;41.43;100260.05;2235069;79;29321;-69
2022/06/06 12:17:41;;;;;;;2.00;1.90;;;;;;;28.57;41.58;100258.33;2234538;79;27644;-69
2022/06/06 12:21:01;;;;;;;2.12;1.90;;;;;;;28.36;41.82;100260.54;2234599;79;29914;-68
2022/06/06 12:24:29;;;;;;;3.47;1.85;;;;;;;28.14;42.04;100260.99;2195059;81;31067;-71
2022/06/06 12:28:26;;;;;;;1.72;1.62;;;;;;;27.92;42.16;100260.05;2183110;81;34325;-70
2022/06/06 12:32:25;;;;;;;2.92;1.80;;;;;;;27.64;42.39;100262.11;2181044;81;30206;-67
2022/06/06 12:35:36;;;;;;;4.62;1.90;;;;;;;27.30;42.73;100261.05;2226218;79;27599;-71
2022/06/06 12:39:10;;;;;;;2.33;2.12;;;;;;;26.97;43.04;100262.73;2227510;79;28641;-68
2022/06/06 12:42:30;;;;;;;2.15;2.00;;;;;;;26.80;43.63;100265.28;2147885;82;32263;-69
2022/06/06 12:46:09;;;;;;;2.35;2.15;;;;;;;26.57;43.83;100262.50;2187417;81;33301;-70
2022/06/06 12:49:57;;;;;;;3.00;2.70;;;;;;;26.45;44.19;100264.80;2187520;81;29967;-69
2022/06/06 12:53:24;;;;;;;5.42;2.77;;;;;;;26.42;44.64;100260.54;2187936;81;27716;-70
2022/06/06 12:56:58;;;;;;;2.58;2.37;;;;;;;26.40;44.95;100258.48;2150069;82;28670;-67
2022/06/06 13:00:12;;;;;;;2.40;2.20;;;;;;;26.44;45.17;100254.84;2227631;79;31026;-71
2022/06/06 13:03:37;;;;;;;3.05;2.37;;;;;;;26.49;45.29;100256.02;2188399;81;33350;-72
2022/06/06 13:07:06;;;;;;;3.52;2.27;;;;;;;26.43;45.46;100248.52;2188496;81;30021;-72
2022/06/06 13:11:00;;;;;;;3.52;2.33;;;;;;;26.44;45.58;100255.72;2188088;81;28060;-72
2022/06/06 13:14:45;;;;;;;4.42;2.58;;;;;;;26.40;45.70;100255.74;2147942;82;29082;-71
2022/06/06 13:18:18;;;;;;;3.22;2.90;;;;;;;26.31;45.93;100254.94;2188562;81;31066;-73
2022/06/06 13:21:38;;;;;;;5.05;2.65;;;;;;;26.19;46.12;100252.27;2202372;79;34205;-67
2022/06/06 13:25:23;;;;;;;11.38;3.37;;;;;;;26.17;46.36;100258.45;2227726;79;29847;-68
2022/06/06 13:28:29;;;;;;;6.00;2.85;;;;;;;26.11;46.66;100253.16;2235172;79;36682;-70
2022/06/06 13:31:51;;;;;;;4.47;2.60;;;;;;;25.93;46.83;100252.88;2237290;79;29333;-68
2022/06/06 13:35:06;;;;;;;3.62;2.40;;;;;;;25.76;46.87;100258.92;2237440;79;31219;-71
2022/06/06 13:38:19;;;;;;;4.20;3.00;;;;;;;25.63;47.08;100254.52;2189641;81;32963;-67
2022/06/06 13:41:38;;;;;;;2.58;2.37;;;;;;;25.48;47.38;100247.02;2236829;78;29415;-69
2022/06/06 13:45:02;;;;;;;3.77;2.75;;;;;;;25.37;47.52;100244.63;2236704;79;28223;-72
2022/06/06 13:48:26;;;;;;;4.53;2.70;;;;;;;25.33;47.85;100241.34;2237140;79;29654;-71
2022/06/06 13:51:43;;;;;;;2.83;2.62;;;;;;;25.33;48.01;100237.23;2237318;79;31415;-68
2022/06/06 13:54:44;;;;;;;2.92;2.27;;;;;;;25.43;48.16;100238.45;2235168;79;33004;-69
2022/06/06 13:57:54;;;;;;;6.62;3.10;;;;;;;25.53;48.17;100234.14;2237029;79;30489;-70
2022/06/06 14:01:27;;;;;;;2.70;2.50;;;;;;;25.69;48.17;100239.23;2196443;79;28283;-71
2022/06/06 14:04:56;;;;;;;5.90;2.83;;;;;;;25.75;47.98;100227.55;2196981;81;29533;-71
2022/06/06 14:08:12;;;;;;;5.30;2.90;;;;;;;25.86;48.13;100226.31;2197306;81;33136;-70
2022/06/06 14:11:20;;;;;;;3.00;2.80;;;;;;;25.95;48.23;100232.09;2196276;81;34112;-70
2022/06/06 14:14:22;;;;;;;2.90;2.55;;;;;;;25.94;48.11;100226.27;2195999;79;30561;-66
2022/06/06 14:17:27;;;;;;;3.85;3.00;;;;;;;25.86;48.00;100220.83;2197755;80;27665;-67
2022/06/06 14:20:48;;;;;;;3.20;2.92;;;;;;;25.72;48.16;100226.53;2197683;81;28704;-67
2022/06/06 14:23:51;;;;;;;3.58;3.27;;;;;;;25.64;48.30;100223.30;2197641;80;31200;-68
2022/06/06 14:27:10;;;;;;;6.28;3.12;;;;;;;25.55;48.47;100223.84;2198320;80;33405;-68
2022/06/06 14:30:30;;;;;;;4.42;2.98;;;;;;;25.44;48.37;100226.98;2234734;79;29363;-69
2022/06/06 14:33:36;;;;;;;3.72;3.42;;;;;;;25.39;48.65;100219.75;2234676;79;27642;-69
2022/06/06 14:36:38;;;;;;;3.50;3.20;;;;;;;25.36;48.90;100227.82;2235118;79;28629;-66
2022/06/06 14:39:55;;;;;;;3.30;3.00;;;;;;;25.35;48.98;100223.37;2234761;79;30810;-67
2022/06/06 14:42:56;;;;;;;3.42;3.12;;;;;;;25.34;49.01;100216.17;2235072;79;34013;-71
2022/06/06 14:46:00;;;;;;;4.03;3.77;;;;;;;25.33;48.98;100214.45;2208563;79;29222;-68
2022/06/06 14:49:02;;;;;;;4.10;3.58;;;;;;;25.41;49.16;100209.46;2235405;79;27716;-68
2022/06/06 14:52:20;;;;;;;3.65;3.35;;;;;;;25.45;48.91;100208.96;2234697;79;29851;-71
2022/06/06 14:55:23;;;;;;;3.85;3.55;;;;;;;25.53;49.03;100200.38;2235261;79;31410;-72
2022/06/06 14:58:30;;;;;;;4.00;3.15;;;;;;;25.60;48.88;100202.73;2207919;79;32983;-66
2022/06/06 15:01:32;;;;;;;5.20;3.90;;;;;;;25.66;48.94;100192.94;2235166;79;30135;-68
2022/06/06 15:04:34;;;;;;;4.83;3.35;;;;;;;25.68;48.99;100190.38;2235014;79;27747;-66
2022/06/06 15:08:05;;;;;;;3.85;3.55;;;;;;;25.71;48.87;100190.02;2235348;79;29326;-67
2022/06/06 15:11:14;;;;;;;3.92;3.55;;;;;;;25.82;48.96;100192.02;2234767;79;32218;-67
2022/06/06 15:14:35;;;;;;;3.70;3.40;;;;;;;25.87;48.66;100195.09;2235059;79;32936;-67
2022/06/06 15:17:39;;;;;;;4.03;3.45;;;;;;;25.88;48.63;100189.41;2235041;79;29243;-69
2022/06/06 15:20:41;;;;;;;;;;;;;;;25.86;48.44;100190.64;2237946;79;27601;-68
2022/06/06 15:24:03;;;;;;;4.97;3.70;;;;;;;25.88;48.45;100188.04;2234990;79;29129;-70
2022/06/06 15:27:31;;;;;;;3.33;3.05;;;;;;;25.81;48.56;100182.95;2227255;79;31164;-67
2022/06/06 15:30:41;;;;;;;4.97;3.58;;;;;;;25.82;48.63;100186.53;2088863;85;34502;-67
2022/06/06 15:34:11;;;;;;;4.80;3.47;;;;;;;25.88;48.72;100182.55;2086579;85;29201;-69
2022/06/06 15:37:30;;;;;;;3.80;3.30;;;;;;;25.96;48.71;100186.30;2087365;85;27739;-69
2022/06/06 15:40:40;;;;;;;3.40;3.10;;;;;;;26.02;48.72;100174.08;2087286;85;29481;-72
2022/06/06 15:44:06;;;;;;;15.88;4.20;;;;;;;26.09;48.52;100173.67;2087793;85;31412;-69